sensor_id;sensor_type;location;lat;lon;timestamp;pressure;altitude;pressure_sealevel;temperature;humidity
50226;BME280;36113;50.742;6.432;2024-03-23T00:53:18;98167.94;;;5.68;100.00
50226;BME280;36113;50.742;6.432;2024-03-23T00:55:43;98174.16;;;5.73;100.00
50226;BME280;36113;50.742;6.432;2024-03-23T00:58:09;98167.69;;;5.69;100.00
50226;BME280;36113;50.742;6.432;2024-03-23T01:00:34;98169.31;;;5.70;100.00
50226;BME280;36113;50.742;6.432;2024-03-23T01:03:00;98175.59;;;5.81;100.00
50226;BME280;36113;50.742;6.432;2024-03-23T01:05:25;98176.34;;;5.71;100.00
50226;BME280;36113;50.742;6.432;2024-03-23T01:07:50;98158.19;;;5.67;100.00
50226;BME280;36113;50.742;6.432;2024-03-23T01:10:16;98167.00;;;5.84;100.00
50226;BME280;36113;50.742;6.432;2024-03-23T01:12:41;98173.16;;;5.79;100.00
50226;BME280;36113;50.742;6.432;2024-03-23T01:15:07;98157.41;;;5.66;100.00
50226;BME280;36113;50.742;6.432;2024-03-23T01:17:32;98173.47;;;5.83;100.00
50226;BME280;36113;50.742;6.432;2024-03-23T01:19:58;98174.25;;;5.78;100.00
50226;BME280;36113;50.742;6.432;2024-03-23T01:22:23;98175.66;;;5.86;99.35
50226;BME280;36113;50.742;6.432;2024-03-23T01:24:48;98157.16;;;5.68;99.58
50226;BME280;36113;50.742;6.432;2024-03-23T01:27:14;98178.06;;;5.83;98.95
50226;BME280;36113;50.742;6.432;2024-03-23T01:29:39;98169.13;;;5.82;98.43
50226;BME280;36113;50.742;6.432;2024-03-23T01:32:05;98154.91;;;5.59;98.26
50226;BME280;36113;50.742;6.432;2024-03-23T01:34:30;98148.72;;;5.59;98.61
50226;BME280;36113;50.742;6.432;2024-03-23T01:36:56;98161.88;;;5.55;99.17
50226;BME280;36113;50.742;6.432;2024-03-23T01:39:21;98154.06;;;5.54;99.49
50226;BME280;36113;50.742;6.432;2024-03-23T01:41:46;98168.00;;;5.46;99.41
50226;BME280;36113;50.742;6.432;2024-03-23T01:44:11;98177.41;;;5.43;100.00
50226;BME280;36113;50.742;6.432;2024-03-23T01:46:37;98173.63;;;5.44;100.00
50226;BME280;36113;50.742;6.432;2024-03-23T01:49:05;98168.19;;;5.39;100.00
50226;BME280;36113;50.742;6.432;2024-03-23T01:51:30;98153.69;;;5.45;100.00
50226;BME280;36113;50.742;6.432;2024-03-23T01:53:56;98162.84;;;5.44;99.76
50226;BME280;36113;50.742;6.432;2024-03-23T01:56:22;98151.28;;;5.49;99.60
50226;BME280;36113;50.742;6.432;2024-03-23T01:58:48;98164.53;;;5.50;99.26
50226;BME280;36113;50.742;6.432;2024-03-23T02:01:13;98163.69;;;5.45;98.23
50226;BME280;36113;50.742;6.432;2024-03-23T02:03:38;98166.63;;;5.43;97.19
50226;BME280;36113;50.742;6.432;2024-03-23T02:06:04;98167.88;;;5.35;96.27
50226;BME280;36113;50.742;6.432;2024-03-23T02:08:32;98156.63;;;5.16;96.26
50226;BME280;36113;50.742;6.432;2024-03-23T02:10:58;98166.84;;;5.14;96.11
50226;BME280;36113;50.742;6.432;2024-03-23T02:13:24;98184.72;;;4.98;95.00
50226;BME280;36113;50.742;6.432;2024-03-23T02:15:49;98181.31;;;4.86;94.73
50226;BME280;36113;50.742;6.432;2024-03-23T02:18:14;98165.47;;;4.68;94.05
50226;BME280;36113;50.742;6.432;2024-03-23T02:20:40;98172.91;;;4.61;94.08
50226;BME280;36113;50.742;6.432;2024-03-23T02:23:05;98176.81;;;4.53;93.86
50226;BME280;36113;50.742;6.432;2024-03-23T02:25:32;98194.97;;;4.63;94.22
50226;BME280;36113;50.742;6.432;2024-03-23T02:27:57;98193.16;;;4.46;93.90
50226;BME280;36113;50.742;6.432;2024-03-23T02:30:24;98174.16;;;4.36;93.92
50226;BME280;36113;50.742;6.432;2024-03-23T02:32:49;98161.03;;;4.23;94.74
50226;BME280;36113;50.742;6.432;2024-03-23T02:35:15;98177.84;;;4.30;94.57
50226;BME280;36113;50.742;6.432;2024-03-23T02:37:40;98183.22;;;4.30;94.57
50226;BME280;36113;50.742;6.432;2024-03-23T02:40:06;98201.22;;;4.46;93.97
50226;BME280;36113;50.742;6.432;2024-03-23T02:42:31;98174.31;;;4.29;93.49
50226;BME280;36113;50.742;6.432;2024-03-23T02:44:58;98186.81;;;4.35;93.19
50226;BME280;36113;50.742;6.432;2024-03-23T02:47:23;98167.97;;;4.35;92.94
50226;BME280;36113;50.742;6.432;2024-03-23T02:49:48;98186.41;;;4.27;93.25
50226;BME280;36113;50.742;6.432;2024-03-23T02:52:14;98176.06;;;4.19;94.06
50226;BME280;36113;50.742;6.432;2024-03-23T02:54:39;98165.94;;;4.26;93.38
50226;BME280;36113;50.742;6.432;2024-03-23T02:57:04;98172.47;;;4.30;92.84
50226;BME280;36113;50.742;6.432;2024-03-23T02:59:30;98149.50;;;4.05;92.47
50226;BME280;36113;50.742;6.432;2024-03-23T03:01:55;98126.84;;;3.84;92.80
50226;BME280;36113;50.742;6.432;2024-03-23T03:04:21;98163.19;;;3.87;93.45
50226;BME280;36113;50.742;6.432;2024-03-23T03:06:49;98178.66;;;3.80;94.56
50226;BME280;36113;50.742;6.432;2024-03-23T03:09:14;98174.56;;;3.94;93.77
50226;BME280;36113;50.742;6.432;2024-03-23T03:11:40;98179.16;;;3.93;94.06
50226;BME280;36113;50.742;6.432;2024-03-23T03:14:05;98175.66;;;3.93;94.03
50226;BME280;36113;50.742;6.432;2024-03-23T03:16:32;98175.81;;;3.86;94.71
50226;BME280;36113;50.742;6.432;2024-03-23T03:18:58;98173.66;;;3.71;96.51
50226;BME280;36113;50.742;6.432;2024-03-23T03:21:23;98172.13;;;3.76;97.81
50226;BME280;36113;50.742;6.432;2024-03-23T03:23:48;98180.19;;;3.76;97.93
50226;BME280;36113;50.742;6.432;2024-03-23T03:26:18;98153.81;;;3.72;98.72
50226;BME280;36113;50.742;6.432;2024-03-23T03:28:43;98168.09;;;3.90;98.55
50226;BME280;36113;50.742;6.432;2024-03-23T03:31:14;98173.94;;;3.87;98.22
50226;BME280;36113;50.742;6.432;2024-03-23T03:33:39;98172.78;;;3.83;97.83
50226;BME280;36113;50.742;6.432;2024-03-23T03:36:05;98145.19;;;3.70;98.02
50226;BME280;36113;50.742;6.432;2024-03-23T03:38:30;98119.41;;;3.58;97.77
50226;BME280;36113;50.742;6.432;2024-03-23T03:40:56;98179.72;;;3.96;97.88
50226;BME280;36113;50.742;6.432;2024-03-23T03:43:22;98171.81;;;3.89;97.32
50226;BME280;36113;50.742;6.432;2024-03-23T03:45:54;98171.25;;;3.87;97.70
50226;BME280;36113;50.742;6.432;2024-03-23T03:48:20;98167.09;;;3.79;98.05
50226;BME280;36113;50.742;6.432;2024-03-23T03:50:45;98175.56;;;3.88;98.43
50226;BME280;36113;50.742;6.432;2024-03-23T03:53:11;98162.03;;;3.83;98.08
50226;BME280;36113;50.742;6.432;2024-03-23T03:55:36;98163.34;;;3.80;98.60
50226;BME280;36113;50.742;6.432;2024-03-23T03:58:01;98197.81;;;4.00;97.89
50226;BME280;36113;50.742;6.432;2024-03-23T04:00:27;98175.41;;;3.94;97.39
50226;BME280;36113;50.742;6.432;2024-03-23T04:02:52;98171.50;;;3.85;97.72
50226;BME280;36113;50.742;6.432;2024-03-23T04:05:17;98158.31;;;3.84;97.56
50226;BME280;36113;50.742;6.432;2024-03-23T04:07:44;98178.97;;;4.00;97.27
50226;BME280;36113;50.742;6.432;2024-03-23T04:10:09;98172.22;;;3.98;96.98
50226;BME280;36113;50.742;6.432;2024-03-23T04:12:35;98166.94;;;3.86;97.60
50226;BME280;36113;50.742;6.432;2024-03-23T04:15:00;98179.41;;;3.92;97.82
50226;BME280;36113;50.742;6.432;2024-03-23T04:17:28;98163.34;;;3.80;98.15
50226;BME280;36113;50.742;6.432;2024-03-23T04:19:57;98166.94;;;3.86;97.84
50226;BME280;36113;50.742;6.432;2024-03-23T04:22:23;98170.78;;;3.90;98.13
50226;BME280;36113;50.742;6.432;2024-03-23T04:24:52;98179.22;;;3.82;98.26
50226;BME280;36113;50.742;6.432;2024-03-23T04:27:18;98192.84;;;3.92;98.48
50226;BME280;36113;50.742;6.432;2024-03-23T04:29:47;98174.56;;;3.94;97.99
50226;BME280;36113;50.742;6.432;2024-03-23T04:32:13;98173.78;;;3.93;97.46
50226;BME280;36113;50.742;6.432;2024-03-23T04:34:39;98161.41;;;3.92;97.00
50226;BME280;36113;50.742;6.432;2024-03-23T04:37:05;98176.22;;;3.95;97.16
50226;BME280;36113;50.742;6.432;2024-03-23T04:39:30;98153.00;;;3.89;96.58
50226;BME280;36113;50.742;6.432;2024-03-23T04:41:56;98161.47;;;3.98;96.99
50226;BME280;36113;50.742;6.432;2024-03-23T04:44:21;98146.16;;;3.81;96.86
50226;BME280;36113;50.742;6.432;2024-03-23T04:46:46;98158.22;;;3.79;97.30
50226;BME280;36113;50.742;6.432;2024-03-23T04:49:12;98148.16;;;3.74;97.99
50226;BME280;36113;50.742;6.432;2024-03-23T04:51:37;98167.41;;;3.83;97.62
50226;BME280;36113;50.742;6.432;2024-03-23T04:54:10;98172.38;;;3.91;97.22
50226;BME280;36113;50.742;6.432;2024-03-23T04:56:36;98164.56;;;3.89;96.46
50226;BME280;36113;50.742;6.432;2024-03-23T04:59:01;98158.78;;;3.81;96.75
50226;BME280;36113;50.742;6.432;2024-03-23T05:01:29;98163.84;;;3.77;96.54
50226;BME280;36113;50.742;6.432;2024-03-23T05:03:56;98172.47;;;3.79;96.74
50226;BME280;36113;50.742;6.432;2024-03-23T05:06:22;98168.88;;;3.73;96.57
50226;BME280;36113;50.742;6.432;2024-03-23T05:08:47;98172.72;;;3.78;96.58
50226;BME280;36113;50.742;6.432;2024-03-23T05:11:13;98169.78;;;3.79;96.23
50226;BME280;36113;50.742;6.432;2024-03-23T05:13:38;98171.47;;;3.68;95.90
50226;BME280;36113;50.742;6.432;2024-03-23T05:16:03;98170.50;;;3.75;96.39
50226;BME280;36113;50.742;6.432;2024-03-23T05:18:29;98162.69;;;3.73;95.99
50226;BME280;36113;50.742;6.432;2024-03-23T05:20:56;98172.13;;;3.76;96.19
50226;BME280;36113;50.742;6.432;2024-03-23T05:23:22;98172.13;;;3.76;96.14
50226;BME280;36113;50.742;6.432;2024-03-23T05:25:48;98152.91;;;3.67;96.05
50226;BME280;36113;50.742;6.432;2024-03-23T05:28:13;98174.09;;;3.80;96.03
50226;BME280;36113;50.742;6.432;2024-03-23T05:30:38;98175.91;;;3.75;96.39
50226;BME280;36113;50.742;6.432;2024-03-23T05:33:05;98168.06;;;3.73;95.96
50226;BME280;36113;50.742;6.432;2024-03-23T05:35:31;98168.06;;;3.73;95.51
50226;BME280;36113;50.742;6.432;2024-03-23T05:37:57;98169.69;;;3.74;95.52
50226;BME280;36113;50.742;6.432;2024-03-23T05:40:23;98166.34;;;3.67;95.72
50226;BME280;36113;50.742;6.432;2024-03-23T05:42:49;98160.66;;;3.63;95.32
50226;BME280;36113;50.742;6.432;2024-03-23T05:45:17;98179.03;;;3.71;95.68
50226;BME280;36113;50.742;6.432;2024-03-23T05:47:43;98192.16;;;3.68;96.49
50226;BME280;36113;50.742;6.432;2024-03-23T05:50:10;98174.91;;;3.64;95.86
50226;BME280;36113;50.742;6.432;2024-03-23T05:52:38;98192.97;;;3.68;95.11
50226;BME280;36113;50.742;6.432;2024-03-23T05:55:04;98163.06;;;3.48;95.32
50226;BME280;36113;50.742;6.432;2024-03-23T05:57:29;98196.47;;;3.69;95.18
50226;BME280;36113;50.742;6.432;2024-03-23T05:59:55;98192.41;;;3.66;95.11
50226;BME280;36113;50.742;6.432;2024-03-23T06:02:20;98165.25;;;3.51;94.96
50226;BME280;36113;50.742;6.432;2024-03-23T06:04:46;98166.91;;;3.52;94.49
50226;BME280;36113;50.742;6.432;2024-03-23T06:07:11;98186.38;;;3.59;95.17
50226;BME280;36113;50.742;6.432;2024-03-23T06:09:39;98205.34;;;3.69;94.67
50226;BME280;36113;50.742;6.432;2024-03-23T06:12:05;98200.97;;;3.63;94.64
50226;BME280;36113;50.742;6.432;2024-03-23T06:14:30;98187.09;;;3.55;94.62
50226;BME280;36113;50.742;6.432;2024-03-23T06:16:55;98198.84;;;3.65;94.67
50226;BME280;36113;50.742;6.432;2024-03-23T06:19:21;98196.41;;;3.64;94.73
50226;BME280;36113;50.742;6.432;2024-03-23T06:21:46;98196.31;;;3.76;94.68
50226;BME280;36113;50.742;6.432;2024-03-23T06:24:12;98194.56;;;3.81;94.57
50226;BME280;36113;50.742;6.432;2024-03-23T06:26:37;98199.84;;;3.93;94.21
50226;BME280;36113;50.742;6.432;2024-03-23T06:29:02;98180.38;;;3.86;94.33
50226;BME280;36113;50.742;6.432;2024-03-23T06:31:28;98202.56;;;4.10;94.04
50226;BME280;36113;50.742;6.432;2024-03-23T06:33:55;98181.69;;;4.00;93.86
50226;BME280;36113;50.742;6.432;2024-03-23T06:36:20;98214.13;;;4.27;93.31
50226;BME280;36113;50.742;6.432;2024-03-23T06:38:45;98217.13;;;4.31;93.66
50226;BME280;36113;50.742;6.432;2024-03-23T06:41:11;98205.16;;;4.39;93.32
50226;BME280;36113;50.742;6.432;2024-03-23T06:43:36;98210.44;;;4.50;92.14
50226;BME280;36113;50.742;6.432;2024-03-23T06:46:03;98211.06;;;4.57;92.71
50226;BME280;36113;50.742;6.432;2024-03-23T06:48:29;98215.31;;;4.70;92.38
50226;BME280;36113;50.742;6.432;2024-03-23T06:50:57;98213.41;;;4.71;91.87
50226;BME280;36113;50.742;6.432;2024-03-23T06:53:23;98207.94;;;4.83;92.09
50226;BME280;36113;50.742;6.432;2024-03-23T06:55:52;98218.59;;;4.94;90.93
50226;BME280;36113;50.742;6.432;2024-03-23T06:58:22;98192.09;;;4.86;90.65
50226;BME280;36113;50.742;6.432;2024-03-23T07:00:48;98204.03;;;4.95;90.79
50226;BME280;36113;50.742;6.432;2024-03-23T07:03:14;98234.25;;;5.19;90.59
50226;BME280;36113;50.742;6.432;2024-03-23T07:05:40;98239.25;;;5.33;89.74
50226;BME280;36113;50.742;6.432;2024-03-23T07:08:05;98220.91;;;5.30;90.23
50226;BME280;36113;50.742;6.432;2024-03-23T07:10:31;98226.69;;;5.38;89.88
50226;BME280;36113;50.742;6.432;2024-03-23T07:12:56;98222.09;;;5.39;89.46
50226;BME280;36113;50.742;6.432;2024-03-23T07:15:21;98224.91;;;5.49;88.99
50226;BME280;36113;50.742;6.432;2024-03-23T07:17:47;98242.34;;;5.69;88.61
50226;BME280;36113;50.742;6.432;2024-03-23T07:20:13;98230.81;;;5.73;88.34
50226;BME280;36113;50.742;6.432;2024-03-23T07:22:39;98241.09;;;5.98;88.28
50226;BME280;36113;50.742;6.432;2024-03-23T07:25:05;98250.69;;;6.16;87.68
50226;BME280;36113;50.742;6.432;2024-03-23T07:27:30;98221.69;;;6.34;86.49
50226;BME280;36113;50.742;6.432;2024-03-23T07:29:55;98227.25;;;6.59;85.55
50226;BME280;36113;50.742;6.432;2024-03-23T07:32:21;98219.44;;;6.63;85.67
50226;BME280;36113;50.742;6.432;2024-03-23T07:34:46;98234.97;;;6.83;85.18
50226;BME280;36113;50.742;6.432;2024-03-23T07:37:11;98225.81;;;6.89;85.08
50226;BME280;36113;50.742;6.432;2024-03-23T07:39:36;98221.75;;;6.87;84.57
50226;BME280;36113;50.742;6.432;2024-03-23T07:42:02;98223.50;;;6.66;85.64
50226;BME280;36113;50.742;6.432;2024-03-23T07:44:27;98232.03;;;6.47;85.25
50226;BME280;36113;50.742;6.432;2024-03-23T07:46:53;98224.19;;;6.46;85.72
50226;BME280;36113;50.742;6.432;2024-03-23T07:49:18;98203.22;;;6.58;84.96
50226;BME280;36113;50.742;6.432;2024-03-23T07:51:43;98232.91;;;6.95;83.56
50226;BME280;36113;50.742;6.432;2024-03-23T07:54:10;98230.72;;;6.97;82.63
50226;BME280;36113;50.742;6.432;2024-03-23T07:56:35;98224.50;;;6.92;82.03
50226;BME280;36113;50.742;6.432;2024-03-23T07:59:00;98229.41;;;7.00;82.10
50226;BME280;36113;50.742;6.432;2024-03-23T08:01:28;98238.16;;;7.22;81.92
50226;BME280;36113;50.742;6.432;2024-03-23T08:03:53;98233.22;;;7.09;80.75
50226;BME280;36113;50.742;6.432;2024-03-23T08:06:20;98219.63;;;6.89;81.56
50226;BME280;36113;50.742;6.432;2024-03-23T08:08:47;98185.59;;;6.50;82.44
50226;BME280;36113;50.742;6.432;2024-03-23T08:11:14;98222.25;;;6.78;81.89
50226;BME280;36113;50.742;6.432;2024-03-23T08:13:41;98235.63;;;7.05;81.70
50226;BME280;36113;50.742;6.432;2024-03-23T08:16:07;98215.97;;;7.15;81.26
50226;BME280;36113;50.742;6.432;2024-03-23T08:18:34;98253.41;;;7.49;78.88
50226;BME280;36113;50.742;6.432;2024-03-23T08:21:03;98251.31;;;7.72;78.50
50226;BME280;36113;50.742;6.432;2024-03-23T08:23:31;98245.94;;;7.82;78.36
50226;BME280;36113;50.742;6.432;2024-03-23T08:26:02;98252.16;;;7.87;77.65
50226;BME280;36113;50.742;6.432;2024-03-23T08:28:28;98240.25;;;7.88;75.36
50226;BME280;36113;50.742;6.432;2024-03-23T08:30:54;98244.56;;;7.79;74.09
50226;BME280;36113;50.742;6.432;2024-03-23T08:33:20;98227.00;;;7.97;75.15
50226;BME280;36113;50.742;6.432;2024-03-23T08:36:03;98229.75;;;8.28;74.39
50226;BME280;36113;50.742;6.432;2024-03-23T08:38:29;98251.16;;;8.50;73.08
50226;BME280;36113;50.742;6.432;2024-03-23T08:41:07;98236.25;;;8.42;74.02
50226;BME280;36113;50.742;6.432;2024-03-23T08:43:35;98250.03;;;8.20;73.51
50226;BME280;36113;50.742;6.432;2024-03-23T08:46:04;98236.41;;;7.64;73.53
50226;BME280;36113;50.742;6.432;2024-03-23T08:48:31;98259.31;;;7.41;75.38
50226;BME280;36113;50.742;6.432;2024-03-23T08:51:06;98253.66;;;7.53;75.40
50226;BME280;36113;50.742;6.432;2024-03-23T08:53:32;98253.22;;;7.81;74.54
50226;BME280;36113;50.742;6.432;2024-03-23T08:55:58;98252.16;;;7.82;73.27
50226;BME280;36113;50.742;6.432;2024-03-23T08:58:25;98259.47;;;7.82;73.39
50226;BME280;36113;50.742;6.432;2024-03-23T09:00:55;98256.97;;;7.70;73.31
50226;BME280;36113;50.742;6.432;2024-03-23T09:03:24;98246.19;;;7.75;73.93
50226;BME280;36113;50.742;6.432;2024-03-23T09:05:50;98249.72;;;7.96;72.70
50226;BME280;36113;50.742;6.432;2024-03-23T09:08:16;98242.13;;;7.88;73.76
50226;BME280;36113;50.742;6.432;2024-03-23T09:10:42;98257.84;;;8.01;73.71
50226;BME280;36113;50.742;6.432;2024-03-23T09:13:08;98236.16;;;7.81;74.22
50226;BME280;36113;50.742;6.432;2024-03-23T09:15:35;98244.00;;;7.67;74.76
50226;BME280;36113;50.742;6.432;2024-03-23T09:18:01;98232.75;;;7.28;73.71
50226;BME280;36113;50.742;6.432;2024-03-23T09:20:27;98246.75;;;7.14;73.22
50226;BME280;36113;50.742;6.432;2024-03-23T09:22:53;98241.13;;;7.26;73.67
50226;BME280;36113;50.742;6.432;2024-03-23T09:25:18;98237.94;;;7.39;74.82
50226;BME280;36113;50.742;6.432;2024-03-23T09:27:46;98238.78;;;7.40;74.82
50226;BME280;36113;50.742;6.432;2024-03-23T09:30:12;98246.56;;;7.31;75.48
50226;BME280;36113;50.742;6.432;2024-03-23T09:32:37;98243.75;;;7.05;74.81
50226;BME280;36113;50.742;6.432;2024-03-23T09:35:04;98250.69;;;6.91;76.86
50226;BME280;36113;50.742;6.432;2024-03-23T09:37:29;98256.00;;;6.76;78.25
50226;BME280;36113;50.742;6.432;2024-03-23T09:39:54;98253.19;;;6.60;78.54
50226;BME280;36113;50.742;6.432;2024-03-23T09:42:20;98255.69;;;6.35;79.35
50226;BME280;36113;50.742;6.432;2024-03-23T09:44:45;98287.19;;;6.24;79.89
50226;BME280;36113;50.742;6.432;2024-03-23T09:47:11;98287.13;;;5.92;80.04
50226;BME280;36113;50.742;6.432;2024-03-23T09:49:37;98295.72;;;5.67;81.64
50226;BME280;36113;50.742;6.432;2024-03-23T09:52:03;98284.28;;;5.32;80.78
50226;BME280;36113;50.742;6.432;2024-03-23T09:54:29;98282.31;;;5.06;81.35
50226;BME280;36113;50.742;6.432;2024-03-23T09:56:55;98286.91;;;4.88;80.64
50226;BME280;36113;50.742;6.432;2024-03-23T09:59:20;98279.19;;;4.75;81.64
50226;BME280;36113;50.742;6.432;2024-03-23T10:01:45;98284.50;;;4.70;81.24
50226;BME280;36113;50.742;6.432;2024-03-23T10:04:11;98268.00;;;4.66;82.04
50226;BME280;36113;50.742;6.432;2024-03-23T10:06:38;98273.78;;;4.75;82.91
50226;BME280;36113;50.742;6.432;2024-03-23T10:09:16;98261.13;;;4.75;82.29
50226;BME280;36113;50.742;6.432;2024-03-23T10:11:42;98260.56;;;4.73;82.41
50226;BME280;36113;50.742;6.432;2024-03-23T10:14:09;98257.13;;;4.78;82.82
50226;BME280;36113;50.742;6.432;2024-03-23T10:16:34;98244.75;;;4.77;83.38
50226;BME280;36113;50.742;6.432;2024-03-23T10:18:59;98245.75;;;4.93;83.15
50226;BME280;36113;50.742;6.432;2024-03-23T10:21:25;98245.16;;;5.08;82.46
50226;BME280;36113;50.742;6.432;2024-03-23T10:23:50;98263.28;;;5.34;81.53
50226;BME280;36113;50.742;6.432;2024-03-23T10:26:24;98239.56;;;5.58;81.91
50226;BME280;36113;50.742;6.432;2024-03-23T10:29:00;98251.63;;;6.00;82.28
50226;BME280;36113;50.742;6.432;2024-03-23T10:31:43;98238.81;;;6.17;82.39
50226;BME280;36113;50.742;6.432;2024-03-23T10:34:12;98239.28;;;6.41;81.70
50226;BME280;36113;50.742;6.432;2024-03-23T10:36:38;98237.00;;;6.60;81.88
50226;BME280;36113;50.742;6.432;2024-03-23T10:39:07;98247.28;;;7.11;82.53
50226;BME280;36113;50.742;6.432;2024-03-23T10:41:32;98236.16;;;7.02;80.42
50226;BME280;36113;50.742;6.432;2024-03-23T10:43:58;98246.34;;;6.90;81.20
50226;BME280;36113;50.742;6.432;2024-03-23T10:46:24;98251.31;;;6.66;79.85
50226;BME280;36113;50.742;6.432;2024-03-23T10:48:50;98254.66;;;6.41;79.29
50226;BME280;36113;50.742;6.432;2024-03-23T10:51:15;98251.84;;;6.26;78.74
50226;BME280;36113;50.742;6.432;2024-03-23T10:53:41;98224.44;;;6.07;78.95
50226;BME280;36113;50.742;6.432;2024-03-23T10:56:07;98237.97;;;6.12;79.00
50226;BME280;36113;50.742;6.432;2024-03-23T10:58:41;98220.53;;;6.25;78.78
50226;BME280;36113;50.742;6.432;2024-03-23T11:01:10;98226.78;;;6.68;77.95
50226;BME280;36113;50.742;6.432;2024-03-23T11:03:37;98218.91;;;7.14;76.72
50226;BME280;36113;50.742;6.432;2024-03-23T11:06:04;98219.31;;;7.43;76.14
50226;BME280;36113;50.742;6.432;2024-03-23T11:08:42;98204.97;;;7.53;75.56
50226;BME280;36113;50.742;6.432;2024-03-23T11:11:21;98212.63;;;7.81;75.57
50226;BME280;36113;50.742;6.432;2024-03-23T11:13:49;98221.56;;;7.87;74.47
50226;BME280;36113;50.742;6.432;2024-03-23T11:16:17;98215.94;;;8.04;74.86
50226;BME280;36113;50.742;6.432;2024-03-23T11:18:43;98209.69;;;8.19;73.61
50226;BME280;36113;50.742;6.432;2024-03-23T11:21:09;98225.66;;;8.25;74.44
50226;BME280;36113;50.742;6.432;2024-03-23T11:23:34;98222.41;;;8.23;72.70
50226;BME280;36113;50.742;6.432;2024-03-23T11:26:00;98206.44;;;8.27;72.77
50226;BME280;36113;50.742;6.432;2024-03-23T11:28:26;98198.84;;;8.65;72.83
50226;BME280;36113;50.742;6.432;2024-03-23T11:30:51;98184.47;;;8.80;70.55
50226;BME280;36113;50.742;6.432;2024-03-23T11:33:17;98171.97;;;8.89;70.19
50226;BME280;36113;50.742;6.432;2024-03-23T11:35:42;98194.13;;;9.17;67.23
50226;BME280;36113;50.742;6.432;2024-03-23T11:38:15;98211.66;;;9.35;66.43
50226;BME280;36113;50.742;6.432;2024-03-23T11:40:41;98206.25;;;9.35;62.33
50226;BME280;36113;50.742;6.432;2024-03-23T11:43:12;98201.72;;;9.15;60.98
50226;BME280;36113;50.742;6.432;2024-03-23T11:45:39;98208.78;;;9.10;60.93
50226;BME280;36113;50.742;6.432;2024-03-23T11:48:10;98214.13;;;9.26;61.13
50226;BME280;36113;50.742;6.432;2024-03-23T11:50:38;98186.50;;;9.14;60.71
50226;BME280;36113;50.742;6.432;2024-03-23T11:55:39;98199.31;;;9.58;59.90
50226;BME280;36113;50.742;6.432;2024-03-23T11:58:05;98188.03;;;9.40;59.53
50226;BME280;36113;50.742;6.432;2024-03-23T12:00:30;98215.25;;;9.15;60.41
50226;BME280;36113;50.742;6.432;2024-03-23T12:03:01;98208.31;;;8.88;60.64
50226;BME280;36113;50.742;6.432;2024-03-23T12:05:26;98182.09;;;8.53;60.93
50226;BME280;36113;50.742;6.432;2024-03-23T12:07:51;98207.25;;;8.58;60.46
50226;BME280;36113;50.742;6.432;2024-03-23T12:10:19;98202.63;;;8.74;59.10
50226;BME280;36113;50.742;6.432;2024-03-23T12:12:44;98180.66;;;8.86;58.04
50226;BME280;36113;50.742;6.432;2024-03-23T12:15:10;98180.50;;;9.27;57.83
50226;BME280;36113;50.742;6.432;2024-03-23T12:17:38;98183.50;;;9.75;58.25
50226;BME280;36113;50.742;6.432;2024-03-23T12:20:04;98189.91;;;9.89;56.35
50226;BME280;36113;50.742;6.432;2024-03-23T12:22:30;98184.34;;;10.10;56.50
50226;BME280;36113;50.742;6.432;2024-03-23T12:24:59;98165.34;;;10.05;53.84
50226;BME280;36113;50.742;6.432;2024-03-23T12:27:24;98166.72;;;9.63;53.71
50226;BME280;36113;50.742;6.432;2024-03-23T12:29:50;98180.75;;;9.25;52.38
50226;BME280;36113;50.742;6.432;2024-03-23T12:32:15;98188.38;;;9.23;53.71
50226;BME280;36113;50.742;6.432;2024-03-23T12:34:41;98169.84;;;9.41;54.09
50226;BME280;36113;50.742;6.432;2024-03-23T12:37:07;98180.28;;;9.63;53.52
50226;BME280;36113;50.742;6.432;2024-03-23T12:39:32;98164.66;;;9.89;54.92
50226;BME280;36113;50.742;6.432;2024-03-23T12:41:57;98137.38;;;10.04;54.79
50226;BME280;36113;50.742;6.432;2024-03-23T12:44:23;98140.13;;;10.33;54.10
50226;BME280;36113;50.742;6.432;2024-03-23T12:46:48;98143.47;;;10.54;52.97
50226;BME280;36113;50.742;6.432;2024-03-23T12:49:13;98119.03;;;10.54;52.97
50226;BME280;36113;50.742;6.432;2024-03-23T12:51:39;98136.03;;;10.65;53.42
50226;BME280;36113;50.742;6.432;2024-03-23T12:54:04;98114.81;;;10.67;53.93
50226;BME280;36113;50.742;6.432;2024-03-23T12:56:30;98139.50;;;10.71;49.65
50226;BME280;36113;50.742;6.432;2024-03-23T12:58:56;98127.41;;;10.29;50.08
50226;BME280;36113;50.742;6.432;2024-03-23T13:01:25;98154.47;;;10.05;48.05
50226;BME280;36113;50.742;6.432;2024-03-23T13:03:50;98144.88;;;10.18;49.74
50226;BME280;36113;50.742;6.432;2024-03-23T13:06:19;98123.75;;;10.44;49.06
50226;BME280;36113;50.742;6.432;2024-03-23T13:08:45;98134.81;;;10.52;47.98
50226;BME280;36113;50.742;6.432;2024-03-23T13:11:11;98114.09;;;10.32;49.18
50226;BME280;36113;50.742;6.432;2024-03-23T13:13:37;98139.06;;;10.34;50.46
50226;BME280;36113;50.742;6.432;2024-03-23T13:16:03;98134.56;;;10.49;49.93
50226;BME280;36113;50.742;6.432;2024-03-23T13:18:29;98110.00;;;10.59;50.65
50226;BME280;36113;50.742;6.432;2024-03-23T13:20:54;98127.81;;;10.94;49.81
50226;BME280;36113;50.742;6.432;2024-03-23T13:23:20;98141.75;;;11.12;49.27
50226;BME280;36113;50.742;6.432;2024-03-23T13:25:56;98134.75;;;10.82;46.31
50226;BME280;36113;50.742;6.432;2024-03-23T13:28:22;98118.28;;;10.73;47.12
50226;BME280;36113;50.742;6.432;2024-03-23T13:30:54;98118.09;;;10.64;45.92
50226;BME280;36113;50.742;6.432;2024-03-23T13:33:20;98116.50;;;10.63;45.98
50226;BME280;36113;50.742;6.432;2024-03-23T13:35:52;98101.91;;;10.54;45.47
50226;BME280;36113;50.742;6.432;2024-03-23T13:38:18;98128.97;;;10.64;45.39
50226;BME280;36113;50.742;6.432;2024-03-23T13:41:01;98108.91;;;10.60;46.25
50226;BME280;36113;50.742;6.432;2024-03-23T13:43:29;98106.34;;;10.69;46.75
50226;BME280;36113;50.742;6.432;2024-03-23T13:45:56;98130.75;;;10.50;49.00
50226;BME280;36113;50.742;6.432;2024-03-23T13:48:23;98141.97;;;10.09;52.70
50226;BME280;36113;50.742;6.432;2024-03-23T13:53:23;98161.03;;;9.09;57.47
50226;BME280;36113;50.742;6.432;2024-03-23T13:55:49;98186.13;;;8.60;56.48
50226;BME280;36113;50.742;6.432;2024-03-23T13:58:15;98167.19;;;7.88;60.16
50226;BME280;36113;50.742;6.432;2024-03-23T14:00:40;98170.13;;;7.77;59.38
50226;BME280;36113;50.742;6.432;2024-03-23T14:03:08;98160.69;;;7.90;60.94